sensor_id;sensor_type;location;lat;lon;timestamp;noise_LAeq;noise_LA_min;noise_LA_max;noise_LA01;noise_LA95
71020;Laerm;58902;51.436;5.980;2023-05-10T00:00:01;41.65;37.67;53.09;;
71020;Laerm;58902;51.436;5.980;2023-05-10T00:00:12;44.79;38.12;55.38;;
71020;Laerm;58902;51.436;5.980;2023-05-10T00:00:23;41.96;36.99;56.32;;
71020;Laerm;58902;51.436;5.980;2023-05-10T00:00:33;41.61;35.97;56.55;;
71020;Laerm;58902;51.436;5.980;2023-05-10T00:00:44;41.15;36.53;55.39;;
71020;Laerm;58902;51.436;5.980;2023-05-10T00:00:54;41.43;36.77;55.04;;
71020;Laerm;58902;51.436;5.980;2023-05-10T00:01:04;41.57;36.49;55.81;;
71020;Laerm;58902;51.436;5.980;2023-05-10T00:01:15;41.72;37.52;54.93;;
71020;Laerm;58902;51.436;5.980;2023-05-10T00:01:25;43.30;38.63;56.92;;
71020;Laerm;58902;51.436;5.980;2023-05-10T00:01:36;43.53;39.38;55.20;;
71020;Laerm;58902;51.436;5.980;2023-05-10T00:01:46;44.21;40.64;55.11;;
71020;Laerm;58902;51.436;5.980;2023-05-10T00:01:56;44.09;39.98;57.73;;
71020;Laerm;58902;51.436;5.980;2023-05-10T00:02:07;45.84;42.63;56.14;;
71020;Laerm;58902;51.436;5.980;2023-05-10T00:02:17;43.10;39.21;54.64;;
71020;Laerm;58902;51.436;5.980;2023-05-10T00:02:27;42.63;39.43;56.24;;
71020;Laerm;58902;51.436;5.980;2023-05-10T00:02:38;41.90;38.74;52.05;;
71020;Laerm;58902;51.436;5.980;2023-05-10T00:02:49;42.98;39.74;54.46;;
71020;Laerm;58902;51.436;5.980;2023-05-10T00:02:59;70.79;46.11;75.59;;
71020;Laerm;58902;51.436;5.980;2023-05-10T00:03:09;72.03;68.83;75.58;;
71020;Laerm;58902;51.436;5.980;2023-05-10T00:03:20;78.24;64.83;89.03;;
71020;Laerm;58902;51.436;5.980;2023-05-10T00:03:30;55.43;46.44;64.48;;
71020;Laerm;58902;51.436;5.980;2023-05-10T00:03:41;45.66;40.78;57.32;;
71020;Laerm;58902;51.436;5.980;2023-05-10T00:03:51;42.05;37.66;55.00;;
71020;Laerm;58902;51.436;5.980;2023-05-10T00:04:01;40.59;36.77;55.20;;
71020;Laerm;58902;51.436;5.980;2023-05-10T00:04:12;38.91;35.08;51.80;;
71020;Laerm;58902;51.436;5.980;2023-05-10T00:04:22;39.10;35.00;53.91;;
71020;Laerm;58902;51.436;5.980;2023-05-10T00:04:32;39.27;35.28;54.72;;
71020;Laerm;58902;51.436;5.980;2023-05-10T00:04:43;38.71;35.59;51.91;;
71020;Laerm;58902;51.436;5.980;2023-05-10T00:04:53;38.90;34.72;55.65;;
71020;Laerm;58902;51.436;5.980;2023-05-10T00:05:04;39.51;34.86;54.26;;
71020;Laerm;58902;51.436;5.980;2023-05-10T00:05:14;38.72;34.37;54.43;;
71020;Laerm;58902;51.436;5.980;2023-05-10T00:05:25;39.30;34.08;54.46;;
71020;Laerm;58902;51.436;5.980;2023-05-10T00:05:35;38.88;34.26;53.95;;
71020;Laerm;58902;51.436;5.980;2023-05-10T00:05:45;38.71;34.06;52.89;;
71020;Laerm;58902;51.436;5.980;2023-05-10T00:05:56;38.63;34.68;53.01;;
71020;Laerm;58902;51.436;5.980;2023-05-10T00:06:06;37.85;33.32;49.58;;
71020;Laerm;58902;51.436;5.980;2023-05-10T00:06:16;37.60;33.20;52.07;;
71020;Laerm;58902;51.436;5.980;2023-05-10T00:06:26;38.01;32.42;52.97;;
71020;Laerm;58902;51.436;5.980;2023-05-10T00:06:37;37.85;33.29;51.32;;
71020;Laerm;58902;51.436;5.980;2023-05-10T00:06:48;36.83;33.61;50.56;;
71020;Laerm;58902;51.436;5.980;2023-05-10T00:06:58;37.59;33.22;51.53;;
71020;Laerm;58902;51.436;5.980;2023-05-10T00:07:08;37.51;33.19;53.81;;
71020;Laerm;58902;51.436;5.980;2023-05-10T00:07:20;37.07;32.48;51.81;;
71020;Laerm;58902;51.436;5.980;2023-05-10T00:07:30;40.51;33.29;48.85;;
71020;Laerm;58902;51.436;5.980;2023-05-10T00:07:41;40.86;34.59;45.18;;
71020;Laerm;58902;51.436;5.980;2023-05-10T00:07:54;38.16;33.79;54.85;;
71020;Laerm;58902;51.436;5.980;2023-05-10T00:08:04;37.98;35.56;44.06;;
71020;Laerm;58902;51.436;5.980;2023-05-10T00:08:15;43.06;36.50;53.17;;
71020;Laerm;58902;51.436;5.980;2023-05-10T00:08:25;74.36;52.18;82.40;;
71020;Laerm;58902;51.436;5.980;2023-05-10T00:08:35;73.70;70.16;77.37;;
71020;Laerm;58902;51.436;5.980;2023-05-10T00:08:46;72.33;50.16;77.55;;
71020;Laerm;58902;51.436;5.980;2023-05-10T00:08:56;43.79;37.59;51.09;;
71020;Laerm;58902;51.436;5.980;2023-05-10T00:09:07;37.93;35.02;47.67;;
71020;Laerm;58902;51.436;5.980;2023-05-10T00:09:17;36.11;33.37;47.53;;
71020;Laerm;58902;51.436;5.980;2023-05-10T00:09:27;36.65;33.06;51.28;;
71020;Laerm;58902;51.436;5.980;2023-05-10T00:09:38;35.82;32.66;47.10;;
71020;Laerm;58902;51.436;5.980;2023-05-10T00:09:48;36.60;31.87;50.93;;
71020;Laerm;58902;51.436;5.980;2023-05-10T00:09:58;34.98;31.99;43.49;;
71020;Laerm;58902;51.436;5.980;2023-05-10T00:10:09;34.66;31.80;42.09;;
71020;Laerm;58902;51.436;5.980;2023-05-10T00:10:19;34.50;31.96;41.46;;
71020;Laerm;58902;51.436;5.980;2023-05-10T00:10:29;34.68;31.93;44.26;;
71020;Laerm;58902;51.436;5.980;2023-05-10T00:10:40;34.30;31.60;43.08;;
71020;Laerm;58902;51.436;5.980;2023-05-10T00:10:51;33.77;31.11;40.59;;
71020;Laerm;58902;51.436;5.980;2023-05-10T00:11:01;33.60;30.78;43.63;;
71020;Laerm;58902;51.436;5.980;2023-05-10T00:11:12;33.87;31.14;44.63;;
71020;Laerm;58902;51.436;5.980;2023-05-10T00:11:22;33.94;31.25;41.07;;
71020;Laerm;58902;51.436;5.980;2023-05-10T00:11:32;33.84;31.25;41.36;;
71020;Laerm;58902;51.436;5.980;2023-05-10T00:11:43;33.49;31.22;40.46;;
71020;Laerm;58902;51.436;5.980;2023-05-10T00:11:53;33.35;30.58;41.50;;
71020;Laerm;58902;51.436;5.980;2023-05-10T00:12:03;32.86;30.79;42.50;;
71020;Laerm;58902;51.436;5.980;2023-05-10T00:12:14;32.76;30.48;40.90;;
71020;Laerm;58902;51.436;5.980;2023-05-10T00:12:24;32.10;30.34;38.13;;
71020;Laerm;58902;51.436;5.980;2023-05-10T00:12:35;32.60;30.43;42.88;;
71020;Laerm;58902;51.436;5.980;2023-05-10T00:12:45;32.59;29.87;42.07;;
71020;Laerm;58902;51.436;5.980;2023-05-10T00:12:55;32.29;30.10;40.00;;
71020;Laerm;58902;51.436;5.980;2023-05-10T00:13:06;32.59;30.22;41.55;;
71020;Laerm;58902;51.436;5.980;2023-05-10T00:13:16;32.98;31.22;42.12;;
71020;Laerm;58902;51.436;5.980;2023-05-10T00:13:26;38.68;31.31;45.61;;
71020;Laerm;58902;51.436;5.980;2023-05-10T00:13:37;41.96;32.71;46.19;;
71020;Laerm;58902;51.436;5.980;2023-05-10T00:13:47;36.70;32.18;43.20;;
71020;Laerm;58902;51.436;5.980;2023-05-10T00:13:57;36.83;32.76;42.61;;
71020;Laerm;58902;51.436;5.980;2023-05-10T00:14:08;36.43;33.03;46.54;;
71020;Laerm;58902;51.436;5.980;2023-05-10T00:14:18;40.65;34.93;52.42;;
71020;Laerm;58902;51.436;5.980;2023-05-10T00:14:28;73.59;51.75;78.65;;
71020;Laerm;58902;51.436;5.980;2023-05-10T00:14:39;73.57;68.46;80.22;;
71020;Laerm;58902;51.436;5.980;2023-05-10T00:14:49;69.57;48.81;76.52;;
71020;Laerm;58902;51.436;5.980;2023-05-10T00:14:59;44.09;37.46;49.90;;
71020;Laerm;58902;51.436;5.980;2023-05-10T00:15:10;36.83;33.03;48.77;;
71020;Laerm;58902;51.436;5.980;2023-05-10T00:15:20;35.30;32.25;48.13;;
71020;Laerm;58902;51.436;5.980;2023-05-10T00:15:31;33.94;31.13;43.38;;
71020;Laerm;58902;51.436;5.980;2023-05-10T00:15:41;33.71;30.51;45.81;;
71020;Laerm;58902;51.436;5.980;2023-05-10T00:15:51;32.71;30.26;43.69;;
71020;Laerm;58902;51.436;5.980;2023-05-10T00:16:02;32.46;30.20;44.26;;
71020;Laerm;58902;51.436;5.980;2023-05-10T00:16:12;33.23;30.45;48.14;;
71020;Laerm;58902;51.436;5.980;2023-05-10T00:16:23;33.76;31.12;47.73;;
71020;Laerm;58902;51.436;5.980;2023-05-10T00:16:33;34.02;31.30;46.83;;
71020;Laerm;58902;51.436;5.980;2023-05-10T00:16:43;34.28;30.93;48.72;;
71020;Laerm;58902;51.436;5.980;2023-05-10T00:16:54;33.58;30.76;46.30;;
71020;Laerm;58902;51.436;5.980;2023-05-10T00:17:04;33.48;31.05;45.72;;
71020;Laerm;58902;51.436;5.980;2023-05-10T00:17:14;38.70;31.32;47.49;;
71020;Laerm;58902;51.436;5.980;2023-05-10T00:17:25;42.47;33.63;49.07;;
71020;Laerm;58902;51.436;5.980;2023-05-10T00:17:35;36.49;32.35;47.59;;
71020;Laerm;58902;51.436;5.980;2023-05-10T00:17:45;36.16;33.11;47.40;;
71020;Laerm;58902;51.436;5.980;2023-05-10T00:17:56;36.04;33.02;46.05;;
71020;Laerm;58902;51.436;5.980;2023-05-10T00:18:06;46.07;34.23;57.02;;
71020;Laerm;58902;51.436;5.980;2023-05-10T00:18:16;72.86;55.79;77.64;;
71020;Laerm;58902;51.436;5.980;2023-05-10T00:18:27;68.62;64.27;73.25;;
71020;Laerm;58902;51.436;5.980;2023-05-10T00:18:37;63.87;42.13;72.19;;
71020;Laerm;58902;51.436;5.980;2023-05-10T00:18:47;41.00;36.49;50.54;;
71020;Laerm;58902;51.436;5.980;2023-05-10T00:18:58;36.24;33.26;45.21;;
71020;Laerm;58902;51.436;5.980;2023-05-10T00:19:08;35.12;31.75;47.36;;
71020;Laerm;58902;51.436;5.980;2023-05-10T00:19:18;34.29;31.28;47.12;;
71020;Laerm;58902;51.436;5.980;2023-05-10T00:19:29;33.65;31.03;47.90;;
71020;Laerm;58902;51.436;5.980;2023-05-10T00:19:39;33.69;30.95;47.18;;
71020;Laerm;58902;51.436;5.980;2023-05-10T00:19:49;33.51;30.18;46.84;;
71020;Laerm;58902;51.436;5.980;2023-05-10T00:20:00;32.85;29.76;48.17;;
71020;Laerm;58902;51.436;5.980;2023-05-10T00:20:10;32.26;29.71;45.54;;
71020;Laerm;58902;51.436;5.980;2023-05-10T00:20:20;32.80;29.83;45.82;;
71020;Laerm;58902;51.436;5.980;2023-05-10T00:20:31;32.75;30.66;44.67;;
71020;Laerm;58902;51.436;5.980;2023-05-10T00:20:41;36.78;31.08;45.11;;
71020;Laerm;58902;51.436;5.980;2023-05-10T00:20:52;41.68;32.90;46.24;;
71020;Laerm;58902;51.436;5.980;2023-05-10T00:21:02;35.24;32.03;45.50;;
71020;Laerm;58902;51.436;5.980;2023-05-10T00:21:12;36.13;32.72;46.16;;
71020;Laerm;58902;51.436;5.980;2023-05-10T00:21:23;37.96;34.49;41.88;;
71020;Laerm;58902;51.436;5.980;2023-05-10T00:21:33;75.76;38.46;84.08;;
71020;Laerm;58902;51.436;5.980;2023-05-10T00:21:43;78.05;69.75;84.44;;
71020;Laerm;58902;51.436;5.980;2023-05-10T00:21:54;75.21;48.83;85.23;;
71020;Laerm;58902;51.436;5.980;2023-05-10T00:22:04;46.04;37.48;52.21;;
71020;Laerm;58902;51.436;5.980;2023-05-10T00:22:14;36.56;32.66;47.87;;
71020;Laerm;58902;51.436;5.980;2023-05-10T00:22:25;35.53;31.47;45.99;;
71020;Laerm;58902;51.436;5.980;2023-05-10T00:22:35;34.15;30.73;47.12;;
71020;Laerm;58902;51.436;5.980;2023-05-10T00:22:45;33.14;30.93;47.02;;
71020;Laerm;58902;51.436;5.980;2023-05-10T00:22:55;34.18;30.50;47.40;;
71020;Laerm;58902;51.436;5.980;2023-05-10T00:23:06;32.88;30.03;46.46;;
71020;Laerm;58902;51.436;5.980;2023-05-10T00:23:16;33.16;29.61;48.30;;
71020;Laerm;58902;51.436;5.980;2023-05-10T00:23:26;33.18;30.24;46.18;;
71020;Laerm;58902;51.436;5.980;2023-05-10T00:23:37;32.61;30.32;42.68;;
71020;Laerm;58902;51.436;5.980;2023-05-10T00:23:47;33.52;30.35;44.27;;
71020;Laerm;58902;51.436;5.980;2023-05-10T00:23:57;34.61;31.58;45.97;;
71020;Laerm;58902;51.436;5.980;2023-05-10T00:24:08;34.28;31.68;47.23;;
71020;Laerm;58902;51.436;5.980;2023-05-10T00:24:18;34.04;31.03;45.31;;
71020;Laerm;58902;51.436;5.980;2023-05-10T00:24:28;33.35;30.38;46.36;;
71020;Laerm;58902;51.436;5.980;2023-05-10T00:24:39;34.98;30.75;44.06;;
71020;Laerm;58902;51.436;5.980;2023-05-10T00:24:49;41.00;36.10;45.74;;
71020;Laerm;58902;51.436;5.980;2023-05-10T00:25:00;38.06;33.91;45.16;;
71020;Laerm;58902;51.436;5.980;2023-05-10T00:25:10;36.43;33.68;44.40;;
71020;Laerm;58902;51.436;5.980;2023-05-10T00:25:20;37.25;34.09;44.19;;
71020;Laerm;58902;51.436;5.980;2023-05-10T00:25:31;72.69;39.82;81.38;;
71020;Laerm;58902;51.436;5.980;2023-05-10T00:25:42;73.23;68.72;78.32;;
71020;Laerm;58902;51.436;5.980;2023-05-10T00:25:52;70.01;40.39;77.32;;
71020;Laerm;58902;51.436;5.980;2023-05-10T00:26:02;38.93;34.93;45.31;;
71020;Laerm;58902;51.436;5.980;2023-05-10T00:26:12;35.99;33.93;44.77;;
71020;Laerm;58902;51.436;5.980;2023-05-10T00:26:23;34.45;31.98;42.28;;
71020;Laerm;58902;51.436;5.980;2023-05-10T00:26:33;33.87;31.99;43.68;;
71020;Laerm;58902;51.436;5.980;2023-05-10T00:26:44;33.75;31.42;43.48;;
71020;Laerm;58902;51.436;5.980;2023-05-10T00:26:54;33.08;31.09;44.67;;
71020;Laerm;58902;51.436;5.980;2023-05-10T00:27:05;34.17;31.64;44.92;;
71020;Laerm;58902;51.436;5.980;2023-05-10T00:27:15;33.78;32.11;45.18;;
71020;Laerm;58902;51.436;5.980;2023-05-10T00:27:25;34.82;30.78;43.74;;
71020;Laerm;58902;51.436;5.980;2023-05-10T00:27:36;32.34;30.44;42.79;;
71020;Laerm;58902;51.436;5.980;2023-05-10T00:27:46;32.61;30.32;43.55;;
71020;Laerm;58902;51.436;5.980;2023-05-10T00:27:56;32.30;29.63;45.16;;
71020;Laerm;58902;51.436;5.980;2023-05-10T00:28:07;32.06;29.88;45.24;;
71020;Laerm;58902;51.436;5.980;2023-05-10T00:28:17;31.92;29.87;45.02;;
71020;Laerm;58902;51.436;5.980;2023-05-10T00:28:28;32.80;29.96;44.57;;
71020;Laerm;58902;51.436;5.980;2023-05-10T00:28:38;33.22;31.33;44.54;;
71020;Laerm;58902;51.436;5.980;2023-05-10T00:28:49;33.41;31.54;42.19;;
71020;Laerm;58902;51.436;5.980;2023-05-10T00:28:59;32.30;30.14;45.03;;
71020;Laerm;58902;51.436;5.980;2023-05-10T00:29:09;32.74;29.99;42.80;;
71020;Laerm;58902;51.436;5.980;2023-05-10T00:29:20;32.38;29.85;38.50;;
71020;Laerm;58902;51.436;5.980;2023-05-10T00:29:30;32.82;29.96;43.96;;
71020;Laerm;58902;51.436;5.980;2023-05-10T00:29:41;32.62;30.57;39.43;;
71020;Laerm;58902;51.436;5.980;2023-05-10T00:29:52;33.19;31.15;44.95;;
71020;Laerm;58902;51.436;5.980;2023-05-10T00:30:02;35.03;31.61;43.56;;
71020;Laerm;58902;51.436;5.980;2023-05-10T00:30:13;34.27;32.30;43.17;;
71020;Laerm;58902;51.436;5.980;2023-05-10T00:30:23;34.31;32.14;45.32;;
71020;Laerm;58902;51.436;5.980;2023-05-10T00:30:33;34.40;30.51;42.99;;
71020;Laerm;58902;51.436;5.980;2023-05-10T00:30:44;39.47;30.57;44.97;;
71020;Laerm;58902;51.436;5.980;2023-05-10T00:30:54;41.74;33.63;45.57;;
71020;Laerm;58902;51.436;5.980;2023-05-10T00:31:05;39.80;32.49;51.85;;
71020;Laerm;58902;51.436;5.980;2023-05-10T00:31:15;36.66;33.22;44.66;;
71020;Laerm;58902;51.436;5.980;2023-05-10T00:31:26;38.99;34.99;44.29;;
71020;Laerm;58902;51.436;5.980;2023-05-10T00:31:36;72.89;43.23;79.67;;
71020;Laerm;58902;51.436;5.980;2023-05-10T00:31:46;75.72;69.87;81.53;;
71020;Laerm;58902;51.436;5.980;2023-05-10T00:31:57;75.88;55.17;81.51;;
71020;Laerm;58902;51.436;5.980;2023-05-10T00:32:07;51.23;43.47;57.51;;
71020;Laerm;58902;51.436;5.980;2023-05-10T00:32:17;41.59;36.62;46.34;;
71020;Laerm;58902;51.436;5.980;2023-05-10T00:32:28;36.44;33.27;44.36;;
71020;Laerm;58902;51.436;5.980;2023-05-10T00:32:38;35.08;33.54;39.45;;
71020;Laerm;58902;51.436;5.980;2023-05-10T00:32:48;34.47;32.48;45.70;;
71020;Laerm;58902;51.436;5.980;2023-05-10T00:32:59;33.97;31.97;40.79;;
71020;Laerm;58902;51.436;5.980;2023-05-10T00:33:10;33.13;30.91;39.02;;
71020;Laerm;58902;51.436;5.980;2023-05-10T00:33:21;32.88;31.08;36.93;;
71020;Laerm;58902;51.436;5.980;2023-05-10T00:33:31;32.83;30.87;44.91;;
71020;Laerm;58902;51.436;5.980;2023-05-10T00:33:42;32.78;30.58;41.01;;
71020;Laerm;58902;51.436;5.980;2023-05-10T00:33:52;32.76;31.02;41.80;;
71020;Laerm;58902;51.436;5.980;2023-05-10T00:34:02;34.47;31.37;41.49;;
71020;Laerm;58902;51.436;5.980;2023-05-10T00:34:13;33.43;31.58;37.85;;
71020;Laerm;58902;51.436;5.980;2023-05-10T00:34:23;34.29;32.32;41.12;;
71020;Laerm;58902;51.436;5.980;2023-05-10T00:34:34;34.40;32.25;37.67;;
71020;Laerm;58902;51.436;5.980;2023-05-10T00:34:45;34.18;32.81;37.56;;
71020;Laerm;58902;51.436;5.980;2023-05-10T00:34:55;34.06;31.86;40.09;;
71020;Laerm;58902;51.436;5.980;2023-05-10T00:35:05;33.73;32.22;36.33;;
71020;Laerm;58902;51.436;5.980;2023-05-10T00:35:16;33.81;32.39;39.32;;
71020;Laerm;58902;51.436;5.980;2023-05-10T00:35:26;33.91;31.75;37.88;;
71020;Laerm;58902;51.436;5.980;2023-05-10T00:35:36;33.75;31.65;39.95;;
71020;Laerm;58902;51.436;5.980;2023-05-10T00:35:48;33.47;31.96;37.44;;
71020;Laerm;58902;51.436;5.980;2023-05-10T00:35:58;33.48;31.84;38.89;;
71020;Laerm;58902;51.436;5.980;2023-05-10T00:36:08;34.19;32.60;41.80;;
71020;Laerm;58902;51.436;5.980;2023-05-10T00:36:19;34.20;32.73;39.15;;
71020;Laerm;58902;51.436;5.980;2023-05-10T00:36:29;35.12;32.00;39.85;;
71020;Laerm;58902;51.436;5.980;2023-05-10T00:36:39;34.08;31.23;40.88;;
71020;Laerm;58902;51.436;5.980;2023-05-10T00:36:50;34.05;30.77;41.95;;
71020;Laerm;58902;51.436;5.980;2023-05-10T00:37:01;33.17;31.25;42.27;;
71020;Laerm;58902;51.436;5.980;2023-05-10T00:37:11;34.24;30.96;39.91;;
71020;Laerm;58902;51.436;5.980;2023-05-10T00:37:21;32.98;30.94;46.00;;
71020;Laerm;58902;51.436;5.980;2023-05-10T00:37:32;33.83;31.31;39.45;;
71020;Laerm;58902;51.436;5.980;2023-05-10T00:37:42;33.69;31.87;36.69;;
71020;Laerm;58902;51.436;5.980;2023-05-10T00:37:52;37.40;32.45;42.35;;
71020;Laerm;58902;51.436;5.980;2023-05-10T00:38:03;42.31;37.97;46.11;;
71020;Laerm;58902;51.436;5.980;2023-05-10T00:38:13;36.49;32.72;42.17;;
71020;Laerm;58902;51.436;5.980;2023-05-10T00:38:24;34.01;32.14;39.49;;
71020;Laerm;58902;51.436;5.980;2023-05-10T00:38:34;34.83;31.60;44.95;;
71020;Laerm;58902;51.436;5.980;2023-05-10T00:38:45;33.12;31.60;35.39;;
71020;Laerm;58902;51.436;5.980;2023-05-10T00:38:55;34.04;31.22;41.21;;
71020;Laerm;58902;51.436;5.980;2023-05-10T00:39:06;34.09;32.08;37.45;;
71020;Laerm;58902;51.436;5.980;2023-05-10T00:39:16;34.19;32.04;45.00;;
71020;Laerm;58902;51.436;5.980;2023-05-10T00:39:26;33.85;32.30;37.04;;
71020;Laerm;58902;51.436;5.980;2023-05-10T00:39:38;33.46;31.65;38.37;;
71020;Laerm;58902;51.436;5.980;2023-05-10T00:39:48;33.71;31.06;48.17;;
71020;Laerm;58902;51.436;5.980;2023-05-10T00:39:59;32.85;30.46;37.04;;
71020;Laerm;58902;51.436;5.980;2023-05-10T00:40:09;32.12;29.92;35.41;;
71020;Laerm;58902;51.436;5.980;2023-05-10T00:40:20;32.21;30.15;40.84;;
71020;Laerm;58902;51.436;5.980;2023-05-10T00:40:31;34.04;30.36;50.89;;
71020;Laerm;58902;51.436;5.980;2023-05-10T00:40:41;32.78;30.69;36.12;;
71020;Laerm;58902;51.436;5.980;2023-05-10T00:40:51;32.59;30.24;38.60;;
71020;Laerm;58902;51.436;5.980;2023-05-10T00:41:02;33.32;31.49;36.35;;
71020;Laerm;58902;51.436;5.980;2023-05-10T00:41:12;34.29;31.86;50.42;;
71020;Laerm;58902;51.436;5.980;2023-05-10T00:41:23;32.68;30.56;38.22;;
71020;Laerm;58902;51.436;5.980;2023-05-10T00:41:33;32.42;30.48;42.67;;
71020;Laerm;58902;51.436;5.980;2023-05-10T00:41:43;33.26;30.16;51.25;;
71020;Laerm;58902;51.436;5.980;2023-05-10T00:41:54;31.95;30.38;36.42;;
71020;Laerm;58902;51.436;5.980;2023-05-10T00:42:04;31.74;30.24;37.90;;
71020;Laerm;58902;51.436;5.980;2023-05-10T00:42:15;31.48;30.34;33.80;;
71020;Laerm;58902;51.436;5.980;2023-05-10T00:42:25;32.75;29.99;49.65;;
71020;Laerm;58902;51.436;5.980;2023-05-10T00:42:35;32.17;30.88;37.10;;
71020;Laerm;58902;51.436;5.980;2023-05-10T00:42:46;32.02;30.64;35.46;;
71020;Laerm;58902;51.436;5.980;2023-05-10T00:42:56;32.64;29.74;50.75;;
71020;Laerm;58902;51.436;5.980;2023-05-10T00:43:07;31.13;29.57;37.04;;
71020;Laerm;58902;51.436;5.980;2023-05-10T00:43:17;31.15;29.43;35.82;;
71020;Laerm;58902;51.436;5.980;2023-05-10T00:43:27;31.01;29.56;39.24;;
71020;Laerm;58902;51.436;5.980;2023-05-10T00:43:38;32.12;29.64;50.74;;
71020;Laerm;58902;51.436;5.980;2023-05-10T00:43:48;31.06;29.31;37.17;;
71020;Laerm;58902;51.436;5.980;2023-05-10T00:43:58;31.79;29.44;37.98;;
71020;Laerm;58902;51.436;5.980;2023-05-10T00:44:09;31.39;29.87;40.42;;
71020;Laerm;58902;51.436;5.980;2023-05-10T00:44:19;32.60;30.25;48.48;;
71020;Laerm;58902;51.436;5.980;2023-05-10T00:44:29;37.09;29.65;44.15;;
71020;Laerm;58902;51.436;5.980;2023-05-10T00:44:43;42.32;33.73;47.30;;
71020;Laerm;58902;51.436;5.980;2023-05-10T00:44:54;34.89;31.36;46.31;;
71020;Laerm;58902;51.436;5.980;2023-05-10T00:45:04;34.59;31.57;37.55;;
71020;Laerm;58902;51.436;5.980;2023-05-10T00:45:15;42.41;33.60;51.31;;
71020;Laerm;58902;51.436;5.980;2023-05-10T00:45:25;74.67;50.82;79.54;;
71020;Laerm;58902;51.436;5.980;2023-05-10T00:45:37;78.99;67.97;87.61;;
71020;Laerm;58902;51.436;5.980;2023-05-10T00:45:47;57.11;40.45;71.10;;
71020;Laerm;58902;51.436;5.980;2023-05-10T00:45:58;38.06;34.60;44.32;;
71020;Laerm;58902;51.436;5.980;2023-05-10T00:46:08;34.01;30.66;43.44;;
71020;Laerm;58902;51.436;5.980;2023-05-10T00:46:18;31.82;30.18;39.36;;
71020;Laerm;58902;51.436;5.980;2023-05-10T00:46:30;32.79;29.93;39.30;;
71020;Laerm;58902;51.436;5.980;2023-05-10T00:46:41;31.52;29.51;38.62;;
71020;Laerm;58902;51.436;5.980;2023-05-10T00:46:51;31.32;29.64;42.76;;
71020;Laerm;58902;51.436;5.980;2023-05-10T00:47:02;31.79;29.54;39.92;;
71020;Laerm;58902;51.436;5.980;2023-05-10T00:47:13;31.36;29.79;35.93;;
71020;Laerm;58902;51.436;5.980;2023-05-10T00:47:23;31.45;29.49;37.86;;
71020;Laerm;58902;51.436;5.980;2023-05-10T00:47:34;30.43;28.69;34.53;;
71020;Laerm;58902;51.436;5.980;2023-05-10T00:47:44;30.47;28.66;40.40;;
71020;Laerm;58902;51.436;5.980;2023-05-10T00:47:55;30.46;28.67;40.73;;
71020;Laerm;58902;51.436;5.980;2023-05-10T00:48:06;30.35;28.63;36.07;;
71020;Laerm;58902;51.436;5.980;2023-05-10T00:48:16;30.53;28.88;36.67;;
71020;Laerm;58902;51.436;5.980;2023-05-10T00:48:26;30.52;28.90;39.08;;
71020;Laerm;58902;51.436;5.980;2023-05-10T00:48:38;31.15;28.84;40.08;;
71020;Laerm;58902;51.436;5.980;2023-05-10T00:48:49;31.19;29.48;39.23;;
71020;Laerm;58902;51.436;5.980;2023-05-10T00:49:00;30.93;28.78;42.39;;
71020;Laerm;58902;51.436;5.980;2023-05-10T00:49:10;30.63;29.29;36.24;;
71020;Laerm;58902;51.436;5.980;2023-05-10T00:49:21;30.63;29.16;35.06;;
71020;Laerm;58902;51.436;5.980;2023-05-10T00:49:31;30.50;28.99;34.82;;
71020;Laerm;58902;51.436;5.980;2023-05-10T00:49:42;31.87;30.32;36.72;;
71020;Laerm;58902;51.436;5.980;2023-05-10T00:49:52;31.09;29.74;38.28;;
71020;Laerm;58902;51.436;5.980;2023-05-10T00:50:03;31.37;28.67;43.20;;
71020;Laerm;58902;51.436;5.980;2023-05-10T00:50:15;30.51;28.85;38.63;;
71020;Laerm;58902;51.436;5.980;2023-05-10T00:50:25;31.23;29.62;43.19;;
71020;Laerm;58902;51.436;5.980;2023-05-10T00:50:36;33.46;29.02;40.46;;
71020;Laerm;58902;51.436;5.980;2023-05-10T00:50:46;30.88;29.18;37.85;;
71020;Laerm;58902;51.436;5.980;2023-05-10T00:50:57;30.91;29.27;37.68;;
71020;Laerm;58902;51.436;5.980;2023-05-10T00:51:07;40.72;30.67;45.66;;
71020;Laerm;58902;51.436;5.980;2023-05-10T00:51:18;40.73;33.44;46.34;;
71020;Laerm;58902;51.436;5.980;2023-05-10T00:51:28;35.06;32.71;38.05;;
71020;Laerm;58902;51.436;5.980;2023-05-10T00:51:38;36.00;33.03;47.03;;
71020;Laerm;58902;51.436;5.980;2023-05-10T00:51:49;71.86;36.52;82.61;;
71020;Laerm;58902;51.436;5.980;2023-05-10T00:52:00;78.46;75.34;82.43;;
71020;Laerm;58902;51.436;5.980;2023-05-10T00:52:11;78.45;47.68;86.92;;
71020;Laerm;58902;51.436;5.980;2023-05-10T00:52:22;43.26;37.59;49.33;;
71020;Laerm;58902;51.436;5.980;2023-05-10T00:52:33;37.26;34.71;43.16;;
71020;Laerm;58902;51.436;5.980;2023-05-10T00:52:44;34.94;33.12;37.33;;
71020;Laerm;58902;51.436;5.980;2023-05-10T00:52:54;34.84;33.13;38.43;;
71020;Laerm;58902;51.436;5.980;2023-05-10T00:53:05;35.64;33.21;44.48;;
71020;Laerm;58902;51.436;5.980;2023-05-10T00:53:15;35.64;33.12;38.17;;
71020;Laerm;58902;51.436;5.980;2023-05-10T00:53:26;34.83;32.54;40.96;;
71020;Laerm;58902;51.436;5.980;2023-05-10T00:53:37;34.40;31.78;40.08;;
71020;Laerm;58902;51.436;5.980;2023-05-10T00:53:48;34.26;31.75;42.08;;
71020;Laerm;58902;51.436;5.980;2023-05-10T00:53:59;33.08;31.12;36.92;;
71020;Laerm;58902;51.436;5.980;2023-05-10T00:54:10;33.09;31.33;41.82;;
71020;Laerm;58902;51.436;5.980;2023-05-10T00:54:21;33.00;31.29;42.55;;
71020;Laerm;58902;51.436;5.980;2023-05-10T00:54:32;32.74;31.02;40.47;;
71020;Laerm;58902;51.436;5.980;2023-05-10T00:54:42;32.87;30.71;40.16;;
71020;Laerm;58902;51.436;5.980;2023-05-10T00:54:52;33.72;31.48;43.26;;
71020;Laerm;58902;51.436;5.980;2023-05-10T00:55:03;33.10;30.75;38.27;;
71020;Laerm;58902;51.436;5.980;2023-05-10T00:55:14;33.45;31.28;42.04;;
71020;Laerm;58902;51.436;5.980;2023-05-10T00:55:24;32.96;30.39;36.31;;
71020;Laerm;58902;51.436;5.980;2023-05-10T00:55:35;32.77;30.65;41.86;;
71020;Laerm;58902;51.436;5.980;2023-05-10T00:55:45;33.11;30.53;40.97;;
71020;Laerm;58902;51.436;5.980;2023-05-10T00:55:55;32.81;30.80;37.91;;
71020;Laerm;58902;51.436;5.980;2023-05-10T00:56:06;33.78;31.44;41.16;;
71020;Laerm;58902;51.436;5.980;2023-05-10T00:56:16;34.06;31.80;44.86;;
71020;Laerm;58902;51.436;5.980;2023-05-10T00:56:26;33.08;31.33;41.22;;
71020;Laerm;58902;51.436;5.980;2023-05-10T00:56:39;33.06;30.65;40.64;;
71020;Laerm;58902;51.436;5.980;2023-05-10T00:56:50;33.11;30.40;43.23;;
71020;Laerm;58902;51.436;5.980;2023-05-10T00:57:01;32.71;30.15;45.45;;
71020;Laerm;58902;51.436;5.980;2023-05-10T00:57:11;32.74;30.08;40.23;;
71020;Laerm;58902;51.436;5.980;2023-05-10T00:57:22;32.55;30.63;38.12;;
71020;Laerm;58902;51.436;5.980;2023-05-10T00:57:32;32.82;30.50;40.86;;
71020;Laerm;58902;51.436;5.980;2023-05-10T00:57:42;32.18;29.83;44.16;;
71020;Laerm;58902;51.436;5.980;2023-05-10T00:57:53;31.73;29.64;37.77;;
71020;Laerm;58902;51.436;5.980;2023-05-10T00:58:04;31.75;29.13;41.14;;
71020;Laerm;58902;51.436;5.980;2023-05-10T00:58:14;33.20;30.91;38.23;;
71020;Laerm;58902;51.436;5.980;2023-05-10T00:58:25;32.91;30.38;40.28;;
71020;Laerm;58902;51.436;5.980;2023-05-10T00:58:38;33.01;30.31;42.15;;